createdAt,value
2019-04-05T00:01:37.226Z,16.07
2019-04-05T00:04:05.453Z,15.00
2019-04-05T00:06:35.038Z,16.02
2019-04-05T00:09:04.322Z,14.35
2019-04-05T00:11:32.548Z,15.15
2019-04-05T00:14:00.765Z,14.70
2019-04-05T00:16:29.087Z,14.45
2019-04-05T00:18:57.306Z,16.67
2019-04-05T00:21:25.517Z,14.55
2019-04-05T00:23:53.747Z,14.70
2019-04-05T00:26:21.958Z,16.17
2019-04-05T00:28:51.789Z,15.20
2019-04-05T00:31:20.283Z,14.95
2019-04-05T00:33:48.543Z,17.35
2019-04-05T00:36:16.830Z,15.58
2019-04-05T00:38:45.059Z,14.87
2019-04-05T00:41:13.328Z,15.43
2019-04-05T00:43:41.542Z,17.02
2019-04-05T00:46:09.783Z,17.92
2019-04-05T00:48:38.002Z,15.85
2019-04-05T00:51:06.231Z,17.60
2019-04-05T00:53:34.454Z,17.37
2019-04-05T00:56:02.678Z,17.17
2019-04-05T00:58:30.901Z,16.42
2019-04-05T01:01:01.170Z,15.98
2019-04-05T01:03:29.804Z,14.60
2019-04-05T01:05:58.025Z,16.60
2019-04-05T01:08:26.505Z,15.58
2019-04-05T01:10:54.720Z,15.53
2019-04-05T01:13:22.944Z,15.38
2019-04-05T01:15:51.165Z,15.90
2019-04-05T01:18:19.408Z,15.98
2019-04-05T01:20:49.002Z,18.62
2019-04-05T01:23:17.243Z,16.57
2019-04-05T01:25:45.930Z,19.62
2019-04-05T01:28:14.324Z,17.23
2019-04-05T01:30:42.546Z,18.37
2019-04-05T01:33:10.821Z,16.42
2019-04-05T01:35:39.065Z,18.10
2019-04-05T01:38:07.284Z,19.23
2019-04-05T01:40:35.515Z,16.17
2019-04-05T01:43:03.725Z,17.87
2019-04-05T01:45:31.984Z,18.87
2019-04-05T01:48:00.193Z,16.80
2019-04-05T01:50:28.417Z,17.50
2019-04-05T01:52:56.629Z,17.30
2019-04-05T01:55:24.897Z,18.75
2019-04-05T01:57:53.110Z,16.93
2019-04-05T02:00:21.335Z,17.57
2019-04-05T02:02:49.548Z,18.48
2019-04-05T02:05:17.814Z,17.75
2019-04-05T02:07:46.059Z,19.02
2019-04-05T02:10:14.308Z,17.00
2019-04-05T02:12:42.514Z,18.02
2019-04-05T02:15:12.398Z,17.05
2019-04-05T02:17:40.631Z,15.23
2019-04-05T02:20:08.883Z,17.77
2019-04-05T02:22:37.080Z,16.27
2019-04-05T02:25:06.207Z,17.00
2019-04-05T02:27:34.514Z,17.32
2019-04-05T02:30:02.735Z,19.65
2019-04-05T02:32:30.972Z,16.90
2019-04-05T02:34:59.190Z,16.45
2019-04-05T02:37:27.419Z,15.30
2019-04-05T02:39:55.987Z,16.52
2019-04-05T02:42:24.217Z,14.25
2019-04-05T02:44:52.437Z,17.12
2019-04-05T02:47:20.671Z,16.62
2019-04-05T02:49:48.894Z,17.73
2019-04-05T02:52:17.631Z,16.30
2019-04-05T02:54:45.849Z,17.62
2019-04-05T02:57:14.068Z,17.07
2019-04-05T02:59:42.337Z,16.20
2019-04-05T03:02:12.173Z,16.23
2019-04-05T03:04:40.391Z,15.48
2019-04-05T03:07:09.023Z,18.00
2019-04-05T03:09:37.239Z,18.15
2019-04-05T03:12:05.639Z,16.80
2019-04-05T03:14:34.215Z,17.15
2019-04-05T03:17:02.446Z,18.85
2019-04-05T03:19:31.513Z,16.02
2019-04-05T03:22:01.651Z,19.48
2019-04-05T03:24:30.040Z,17.37
2019-04-05T03:27:00.607Z,19.10
2019-04-05T03:29:28.818Z,20.37
2019-04-05T03:31:57.041Z,17.67
2019-04-05T03:34:25.288Z,17.57
2019-04-05T03:36:53.571Z,17.98
2019-04-05T03:39:23.047Z,17.62
2019-04-05T03:41:52.310Z,18.85
2019-04-05T03:44:22.975Z,19.17
2019-04-05T03:46:56.739Z,19.67
2019-04-05T03:49:20.811Z,17.50
2019-04-05T03:51:49.048Z,18.07
2019-04-05T03:54:17.265Z,19.07
2019-04-05T03:56:45.467Z,17.45
2019-04-05T03:59:13.701Z,19.57
2019-04-05T04:01:41.931Z,20.00
2019-04-05T04:04:10.243Z,16.82
2019-04-05T04:06:38.555Z,17.95
2019-04-05T04:09:06.784Z,20.55
2019-04-05T04:11:35.200Z,19.42
2019-04-05T04:14:03.429Z,19.40
2019-04-05T04:16:31.648Z,18.05
2019-04-05T04:19:00.341Z,18.90
2019-04-05T04:21:31.818Z,20.62
2019-04-05T04:24:00.038Z,19.52
2019-04-05T04:26:28.270Z,19.70
2019-04-05T04:28:56.777Z,19.17
2019-04-05T04:31:25.025Z,18.52
2019-04-05T04:33:53.327Z,19.57
2019-04-05T04:36:21.619Z,20.62
2019-04-05T04:38:50.276Z,19.85
2019-04-05T04:41:18.504Z,19.37
2019-04-05T04:43:46.780Z,20.30
2019-04-05T04:46:15.036Z,19.40
2019-04-05T04:48:43.246Z,20.90
2019-04-05T04:51:11.475Z,21.15
2019-04-05T04:53:39.685Z,19.90
2019-04-05T04:56:07.974Z,20.02
2019-04-05T04:58:36.332Z,21.33
2019-04-05T05:01:04.636Z,20.92
2019-04-05T05:03:32.896Z,20.88
2019-04-05T05:06:01.217Z,20.35
2019-04-05T05:08:29.442Z,21.27
2019-04-05T05:10:57.665Z,20.65
2019-04-05T05:13:25.947Z,22.07
2019-04-05T05:15:54.206Z,20.23
2019-04-05T05:18:22.455Z,28.80
2019-04-05T05:20:50.674Z,20.92
2019-04-05T05:23:18.972Z,24.05
2019-04-05T05:25:47.255Z,20.62
2019-04-05T05:28:15.602Z,23.57
2019-04-05T05:30:43.905Z,20.27
2019-04-05T05:33:12.162Z,24.35
2019-04-05T05:35:40.421Z,25.23
2019-04-05T05:38:08.661Z,22.90
2019-04-05T05:40:36.882Z,25.30
2019-04-05T05:43:05.102Z,23.80
2019-04-05T05:45:33.336Z,23.83
2019-04-05T05:48:01.552Z,29.05
2019-04-05T05:50:29.784Z,32.58
2019-04-05T05:52:58.039Z,25.57
2019-04-05T05:55:26.254Z,25.35
2019-04-05T05:57:57.210Z,22.82
2019-04-05T06:00:24.831Z,22.48
2019-04-05T06:02:53.057Z,25.45
2019-04-05T06:05:21.299Z,24.92
2019-04-05T06:07:49.542Z,24.70
2019-04-05T06:10:17.770Z,26.65
2019-04-05T06:12:46.817Z,24.82
2019-04-05T06:15:16.847Z,27.90
2019-04-05T06:17:45.056Z,27.80
2019-04-05T06:20:14.947Z,23.83
2019-04-05T06:22:43.157Z,25.80
2019-04-05T06:25:11.409Z,27.13
2019-04-05T06:27:39.680Z,24.77
2019-04-05T06:30:07.907Z,28.50
2019-04-05T06:32:36.166Z,26.95
2019-04-05T06:35:06.210Z,27.67
2019-04-05T06:37:34.426Z,27.05
2019-04-05T06:40:02.909Z,32.38
2019-04-05T06:42:31.167Z,26.80
2019-04-05T06:44:59.408Z,26.85
2019-04-05T06:47:27.633Z,26.52
2019-04-05T06:49:55.890Z,26.85
2019-04-05T06:52:24.119Z,27.30
2019-04-05T06:54:52.357Z,28.47
2019-04-05T06:57:20.571Z,29.80
2019-04-05T06:59:48.796Z,26.20
2019-04-05T07:02:18.488Z,29.82
2019-04-05T07:04:46.951Z,27.65
2019-04-05T07:07:17.744Z,29.05
2019-04-05T07:09:45.145Z,28.80
2019-04-05T07:12:13.413Z,37.33
2019-04-05T07:14:41.628Z,36.35
2019-04-05T07:17:09.851Z,32.42
2019-04-05T07:19:38.161Z,31.40
2019-04-05T07:22:06.410Z,31.73
2019-04-05T07:24:34.624Z,30.70
2019-04-05T07:27:02.845Z,30.70
2019-04-05T07:29:31.076Z,26.97
2019-04-05T07:31:59.311Z,33.00
2019-04-05T07:34:27.526Z,29.52
2019-04-05T07:36:55.799Z,30.02
2019-04-05T07:39:24.701Z,32.45
2019-04-05T07:41:52.960Z,32.67
2019-04-05T07:44:21.172Z,33.55
2019-04-05T07:46:49.394Z,28.02
2019-04-05T07:49:17.609Z,31.15
2019-04-05T07:51:45.840Z,29.30
2019-04-05T07:54:14.075Z,31.40
2019-04-05T07:56:42.310Z,26.62
2019-04-05T07:59:10.530Z,32.00
2019-04-05T08:01:38.762Z,30.12
2019-04-05T08:04:06.984Z,37.17
2019-04-05T08:06:35.223Z,33.28
2019-04-05T08:09:06.539Z,32.03
2019-04-05T08:11:34.771Z,30.15
2019-04-05T08:14:02.992Z,29.35
2019-04-05T08:16:31.215Z,27.58
2019-04-05T08:18:59.479Z,30.15
2019-04-05T08:21:27.693Z,29.10
2019-04-05T08:23:56.947Z,33.05
2019-04-05T08:26:25.199Z,29.57
2019-04-05T08:28:53.414Z,30.10
2019-04-05T08:31:21.684Z,28.15
2019-04-05T08:33:49.936Z,24.98
2019-04-05T08:36:18.146Z,26.60
2019-04-05T08:38:46.379Z,24.05
2019-04-05T08:41:14.594Z,25.77
2019-04-05T08:44:02.255Z,29.40
2019-04-05T08:46:30.483Z,29.90
2019-04-05T08:49:10.124Z,25.97
2019-04-05T08:51:28.642Z,27.32
2019-04-05T08:53:56.861Z,27.30
2019-04-05T08:56:25.094Z,26.68
2019-04-05T08:58:53.379Z,25.95
2019-04-05T09:01:21.631Z,25.37
2019-04-05T09:03:49.955Z,22.70
2019-04-05T09:06:18.255Z,25.00
2019-04-05T09:08:46.517Z,23.38
2019-04-05T09:11:14.808Z,22.65
2019-04-05T09:13:43.040Z,24.12
2019-04-05T09:16:11.864Z,23.32
2019-04-05T09:18:40.254Z,21.80
2019-04-05T09:21:10.146Z,24.95
2019-04-05T09:23:38.527Z,22.02
2019-04-05T09:26:06.741Z,22.70
2019-04-05T09:28:34.979Z,24.63
2019-04-05T09:31:03.255Z,21.27
2019-04-05T09:33:31.469Z,24.30
2019-04-05T09:35:59.712Z,20.52
2019-04-05T09:38:27.930Z,20.97
2019-04-05T09:40:56.194Z,21.82
2019-04-05T09:43:24.455Z,23.15
2019-04-05T09:45:52.740Z,20.68
2019-04-05T09:48:20.966Z,20.45
2019-04-05T09:50:49.182Z,18.60
2019-04-05T09:53:17.423Z,18.48
2019-04-05T09:55:45.668Z,16.80
2019-04-05T09:58:13.893Z,19.87
2019-04-05T10:00:42.104Z,21.33
2019-04-05T10:03:10.347Z,20.00
2019-04-05T10:05:38.550Z,20.65
2019-04-05T10:08:06.773Z,19.87
2019-04-05T10:10:35.003Z,22.02
2019-04-05T10:13:03.328Z,23.10
2019-04-05T10:15:31.578Z,22.67
2019-04-05T10:17:59.798Z,20.25
2019-04-05T10:20:28.056Z,20.32
2019-04-05T10:22:56.285Z,25.88
2019-04-05T10:25:24.508Z,24.50
2019-04-05T10:27:52.734Z,23.70
2019-04-05T10:30:20.963Z,23.30
2019-04-05T10:32:49.211Z,21.52
2019-04-05T10:35:17.453Z,22.48
2019-04-05T10:37:45.680Z,22.77
2019-04-05T10:40:13.886Z,23.60
2019-04-05T10:42:42.147Z,21.95
2019-04-05T10:45:11.039Z,23.22
2019-04-05T10:47:39.281Z,23.40
2019-04-05T10:50:08.731Z,24.02
2019-04-05T10:52:37.033Z,22.87
2019-04-05T10:55:05.634Z,23.90
2019-04-05T10:57:33.874Z,20.82
2019-04-05T11:00:02.186Z,23.55
2019-04-05T11:02:30.416Z,25.72
2019-04-05T11:04:58.638Z,20.72
2019-04-05T11:07:26.862Z,24.72
2019-04-05T11:09:55.086Z,24.92
2019-04-05T11:12:25.273Z,25.45
2019-04-05T11:14:53.500Z,25.82
2019-04-05T11:17:21.726Z,27.80
2019-04-05T11:19:49.954Z,21.90
2019-04-05T11:22:20.268Z,22.25
2019-04-05T11:24:48.156Z,23.10
2019-04-05T11:27:16.369Z,25.57
2019-04-05T11:29:44.618Z,27.70
2019-04-05T11:32:12.841Z,24.20
2019-04-05T11:34:41.063Z,23.87
2019-04-05T11:37:09.319Z,25.57
2019-04-05T11:39:37.540Z,26.00
2019-04-05T11:42:06.300Z,27.13
2019-04-05T11:44:34.582Z,24.23
2019-04-05T11:47:03.584Z,25.23
2019-04-05T11:49:31.857Z,28.02
2019-04-05T11:52:00.075Z,24.43
2019-04-05T11:54:28.297Z,27.85
2019-04-05T11:56:56.630Z,26.82
2019-04-05T11:59:24.897Z,25.15
2019-04-05T12:02:11.027Z,25.30
2019-04-05T12:04:39.249Z,24.80
2019-04-05T12:07:07.475Z,25.80
2019-04-05T12:09:35.703Z,27.48
2019-04-05T12:12:03.967Z,23.52
2019-04-05T12:14:32.173Z,26.17
2019-04-05T12:17:00.418Z,26.60
2019-04-05T12:19:28.631Z,24.87
2019-04-05T12:21:56.858Z,23.90
2019-04-05T12:24:25.091Z,25.82
2019-04-05T12:26:53.357Z,23.65
2019-04-05T12:29:21.951Z,25.20
2019-04-05T12:31:53.237Z,24.18
2019-04-05T12:34:22.236Z,21.57
2019-04-05T12:36:50.580Z,24.55
2019-04-05T12:39:20.066Z,24.98
2019-04-05T12:41:48.339Z,25.25
2019-04-05T12:44:16.564Z,23.25
2019-04-05T12:46:45.930Z,23.40
2019-04-05T12:49:15.325Z,23.10
2019-04-05T12:51:46.120Z,25.77
2019-04-05T12:54:14.607Z,25.70
2019-04-05T12:56:42.837Z,26.15
2019-04-05T12:59:11.068Z,24.77
2019-04-05T13:01:39.291Z,22.27
2019-04-05T13:04:07.558Z,21.95
2019-04-05T13:06:35.774Z,22.95
2019-04-05T13:09:06.576Z,25.55
2019-04-05T13:11:35.812Z,22.98
2019-04-05T13:14:04.087Z,23.57
2019-04-05T13:16:32.309Z,24.92
2019-04-05T13:19:01.487Z,26.10
2019-04-05T13:21:32.049Z,26.48
2019-04-05T13:23:59.936Z,23.47
2019-04-05T13:26:28.150Z,24.15
2019-04-05T13:28:56.432Z,23.10
2019-04-05T13:31:24.688Z,25.48
2019-04-05T13:33:55.271Z,26.75
2019-04-05T13:36:22.875Z,23.75
2019-04-05T13:38:54.970Z,23.70
2019-04-05T13:41:40.499Z,25.12
2019-04-05T13:44:08.762Z,27.02
2019-04-05T13:46:39.073Z,23.98
2019-04-05T13:49:10.350Z,24.57
2019-04-05T13:51:36.906Z,23.27
2019-04-05T13:54:05.137Z,27.00
2019-04-05T13:56:33.397Z,24.98
2019-04-05T13:59:01.625Z,25.85
2019-04-05T14:01:29.890Z,26.00
2019-04-05T14:03:58.147Z,26.57
2019-04-05T14:06:26.410Z,26.40
2019-04-05T14:08:54.667Z,26.17
2019-04-05T14:11:25.810Z,25.05
2019-04-05T14:13:52.880Z,25.40
2019-04-05T14:16:21.099Z,26.30
2019-04-05T14:18:49.820Z,26.65
2019-04-05T14:21:20.644Z,26.37
2019-04-05T14:23:48.229Z,28.42
2019-04-05T14:26:16.475Z,25.17
2019-04-05T14:28:44.706Z,25.85
2019-04-05T14:31:12.965Z,24.60
2019-04-05T14:33:41.190Z,24.27
2019-04-05T14:36:09.416Z,25.20
2019-04-05T14:38:37.642Z,24.37
2019-04-05T14:41:05.915Z,22.90
2019-04-05T14:43:37.709Z,25.10
2019-04-05T14:46:05.090Z,26.42
2019-04-05T14:48:33.313Z,22.95
2019-04-05T14:51:03.575Z,22.75
2019-04-05T14:53:32.303Z,24.32
2019-04-05T14:56:01.114Z,22.20
2019-04-05T14:58:29.354Z,25.65
2019-04-05T15:00:57.582Z,26.37
2019-04-05T15:03:25.818Z,25.08
2019-04-05T15:05:54.080Z,24.80
2019-04-05T15:08:22.336Z,24.07
2019-04-05T15:10:51.476Z,22.90
2019-04-05T15:13:19.957Z,25.75
2019-04-05T15:15:48.191Z,25.02
2019-04-05T15:18:19.291Z,23.60
2019-04-05T15:20:46.393Z,21.70
2019-04-05T15:23:14.642Z,22.45
2019-04-05T15:25:42.868Z,24.45
2019-04-05T15:28:11.088Z,24.05
2019-04-05T15:30:39.310Z,25.82
2019-04-05T15:33:07.534Z,25.65
2019-04-05T15:35:35.768Z,26.77
2019-04-05T15:38:03.995Z,26.45
2019-04-05T15:40:32.257Z,25.20
2019-04-05T15:43:00.471Z,21.87
2019-04-05T15:45:28.697Z,26.77
2019-04-05T15:47:56.930Z,24.27
2019-04-05T15:50:25.181Z,26.95
2019-04-05T15:52:53.398Z,26.52
2019-04-05T15:55:21.686Z,24.27
2019-04-05T15:57:49.894Z,27.02
2019-04-05T16:00:20.935Z,28.80
2019-04-05T16:02:49.278Z,30.15
2019-04-05T16:05:17.504Z,25.75
2019-04-05T16:07:45.725Z,28.85
2019-04-05T16:10:13.961Z,29.23
2019-04-05T16:12:42.191Z,29.15
2019-04-05T16:15:11.079Z,29.05
2019-04-05T16:17:39.312Z,29.42
2019-04-05T16:20:09.554Z,30.85
2019-04-05T16:22:37.777Z,28.73
2019-04-05T16:25:07.751Z,32.40
2019-04-05T16:27:36.023Z,27.37
2019-04-05T16:30:05.678Z,31.17
2019-04-05T16:32:33.928Z,33.85
2019-04-05T16:35:02.146Z,33.73
2019-04-05T16:37:30.382Z,34.43
2019-04-05T16:39:58.609Z,32.98
2019-04-05T16:42:26.850Z,34.03
2019-04-05T16:44:55.071Z,36.80
2019-04-05T16:47:23.301Z,31.48
2019-04-05T16:49:51.697Z,35.43
2019-04-05T16:52:19.986Z,35.38
2019-04-05T16:54:48.211Z,33.40
2019-04-05T16:57:35.862Z,33.48
2019-04-05T17:00:06.495Z,30.32
2019-04-05T17:02:34.724Z,29.45
2019-04-05T17:05:02.941Z,28.75
2019-04-05T17:07:31.217Z,30.57
2019-04-05T17:09:59.443Z,30.52
2019-04-05T17:12:27.700Z,33.28
2019-04-05T17:14:55.942Z,30.45
2019-04-05T17:17:24.927Z,32.08
2019-04-05T17:19:53.177Z,31.80
2019-04-05T17:22:21.401Z,28.70
2019-04-05T17:24:49.669Z,29.60
2019-04-05T17:27:17.891Z,30.43
2019-04-05T17:29:46.140Z,29.95
2019-04-05T17:32:14.379Z,29.77
2019-04-05T17:34:42.601Z,32.73
2019-04-05T17:37:10.817Z,28.80
2019-04-05T17:39:39.043Z,26.93
2019-04-05T17:42:07.280Z,28.65
2019-04-05T17:44:35.495Z,31.10
2019-04-05T17:47:04.468Z,29.20
2019-04-05T17:49:32.702Z,28.75
2019-04-05T17:52:01.535Z,29.40
2019-04-05T17:54:29.996Z,28.75
2019-04-05T17:56:58.247Z,32.48
2019-04-05T17:59:26.597Z,31.15
2019-04-05T18:01:55.445Z,33.45
2019-04-05T18:04:23.908Z,30.45
2019-04-05T18:06:52.166Z,33.85
2019-04-05T18:09:20.401Z,26.65
2019-04-05T18:11:49.225Z,28.92
2019-04-05T18:14:17.504Z,26.70
2019-04-05T18:16:45.739Z,30.17
2019-04-05T18:19:13.992Z,35.08
2019-04-05T18:21:42.205Z,37.38
2019-04-05T18:24:10.467Z,51.35
2019-04-05T18:26:38.698Z,39.78
2019-04-05T18:29:07.369Z,35.58
2019-04-05T18:31:35.826Z,33.92
2019-04-05T18:34:04.051Z,36.10
2019-04-05T18:36:32.358Z,33.00
2019-04-05T18:39:00.629Z,34.90
2019-04-05T18:41:28.845Z,37.05
2019-04-05T18:43:57.069Z,36.55
2019-04-05T18:46:25.328Z,33.53
2019-04-05T18:48:53.588Z,33.18
2019-04-05T18:51:22.036Z,35.13
2019-04-05T18:53:50.374Z,32.35
2019-04-05T18:56:18.657Z,37.50
2019-04-05T18:58:46.968Z,35.35
2019-04-05T19:01:15.260Z,30.92
2019-04-05T19:03:45.125Z,35.88
2019-04-05T19:06:13.351Z,37.20
2019-04-05T19:08:42.068Z,34.55
2019-04-05T19:11:10.568Z,33.95
2019-04-05T19:13:38.818Z,37.90
2019-04-05T19:16:07.110Z,39.20
2019-04-05T19:18:35.483Z,35.33
2019-04-05T19:21:03.746Z,37.75
2019-04-05T19:23:31.952Z,38.10
2019-04-05T19:26:01.382Z,38.33
2019-04-05T19:28:29.661Z,36.77
2019-04-05T19:48:30.932Z,36.60
2019-04-05T19:50:59.870Z,37.73
2019-04-05T19:53:28.777Z,32.78
2019-04-05T19:55:56.990Z,34.83
2019-04-05T19:58:25.278Z,35.65
2019-04-05T20:00:56.766Z,45.75
2019-04-05T20:03:25.031Z,55.88
2019-04-05T20:05:53.426Z,42.13
2019-04-05T20:08:21.838Z,56.68
2019-04-05T20:10:50.135Z,51.75
2019-04-05T20:13:18.373Z,46.40
2019-04-05T20:15:49.377Z,41.08
2019-04-05T20:18:17.591Z,42.95
2019-04-05T20:21:05.322Z,42.65
2019-04-05T20:23:33.603Z,46.95
2019-04-05T20:26:02.210Z,43.55
2019-04-05T20:28:30.461Z,38.42
2019-04-05T20:30:58.736Z,38.10
2019-04-05T20:33:26.980Z,39.05
2019-04-05T20:35:55.280Z,38.90
2019-04-05T20:38:23.487Z,36.60
2019-04-05T20:40:51.721Z,38.78
2019-04-05T20:43:20.003Z,43.63
2019-04-05T20:45:48.307Z,42.60
2019-04-05T20:48:16.636Z,46.10
2019-04-05T20:50:45.078Z,38.63
2019-04-05T20:53:13.450Z,37.83
2019-04-05T20:55:41.711Z,36.60
2019-04-05T20:58:09.933Z,34.90
2019-04-05T21:00:38.165Z,36.85
2019-04-05T21:03:06.401Z,42.45
2019-04-05T21:05:34.607Z,45.95
2019-04-05T21:08:02.842Z,40.10
2019-04-05T21:10:31.061Z,42.90
2019-04-05T21:12:59.435Z,42.67
2019-04-05T21:15:47.282Z,45.30
2019-04-05T21:18:15.751Z,43.60
2019-04-05T21:20:44.504Z,44.25
2019-04-05T21:23:13.441Z,43.78
2019-04-05T21:25:41.648Z,46.73
2019-04-05T21:28:09.930Z,44.45
2019-04-05T21:30:38.135Z,43.23
2019-04-05T21:33:06.377Z,44.08
2019-04-05T21:35:34.672Z,39.60
2019-04-05T21:38:02.935Z,42.58
2019-04-05T21:40:33.160Z,38.38
2019-04-05T21:43:03.912Z,38.30
2019-04-05T21:45:32.336Z,38.50
2019-04-05T21:48:00.590Z,37.25
2019-04-05T21:50:28.831Z,35.43
2019-04-05T21:52:57.053Z,37.42
2019-04-05T21:55:25.315Z,46.25
2019-04-05T21:57:54.830Z,39.25
2019-04-05T22:00:26.301Z,36.60
2019-04-05T22:02:54.871Z,42.35
2019-04-05T22:05:23.088Z,41.70
2019-04-05T22:07:51.697Z,40.08
2019-04-05T22:10:20.065Z,33.98
2019-04-05T22:12:48.985Z,31.42
2019-04-05T22:15:19.127Z,31.15
2019-04-05T22:17:47.358Z,34.15
2019-04-05T22:20:15.583Z,39.40
2019-04-05T22:22:43.814Z,41.85
2019-04-05T22:25:12.034Z,37.98
2019-04-05T22:27:41.284Z,39.85
2019-04-05T22:30:09.495Z,40.45
2019-04-05T22:32:37.737Z,42.08
2019-04-05T22:35:05.960Z,37.20
2019-04-05T22:37:35.133Z,39.18
2019-04-05T22:40:05.231Z,35.28
2019-04-05T22:42:33.464Z,43.60
2019-04-05T22:45:01.682Z,41.33
2019-04-05T22:47:30.307Z,42.05
2019-04-05T22:49:58.555Z,41.10
2019-04-05T22:52:26.807Z,40.03
2019-04-05T22:54:55.062Z,38.35
2019-04-05T22:57:23.273Z,42.70
2019-04-05T22:59:51.500Z,36.73
2019-04-05T23:02:19.748Z,36.80
2019-04-05T23:04:49.121Z,37.20
2019-04-05T23:07:17.352Z,38.50
2019-04-05T23:09:45.578Z,38.58
2019-04-05T23:12:13.796Z,38.28
2019-04-05T23:14:42.019Z,37.35
2019-04-05T23:17:10.281Z,39.45
2019-04-05T23:19:38.510Z,39.38
2019-04-05T23:22:06.750Z,34.38
2019-04-05T23:24:34.980Z,39.85
2019-04-05T23:27:03.231Z,43.42
2019-04-05T23:29:31.487Z,39.90
2019-04-05T23:31:59.699Z,42.73
2019-04-05T23:34:28.036Z,40.98
2019-04-05T23:36:56.288Z,37.42
2019-04-05T23:39:24.543Z,37.45
2019-04-05T23:41:52.766Z,38.38
2019-04-05T23:44:21.040Z,40.50
2019-04-05T23:46:49.283Z,43.70
2019-04-05T23:49:17.476Z,41.33
2019-04-05T23:51:45.745Z,41.73
2019-04-05T23:54:14.052Z,39.48
2019-04-05T23:56:42.264Z,41.35
2019-04-05T23:59:10.541Z,40.92
